METAR Data
IDs: Format: Raw Decoded Include TAF

Data at: 0731 UTC 01 Aug 2021

EGAA 010720Z 01004KT 310V040 9999 SCT011 BKN029 12/10 Q1012